Time;durP1;ratioP1;P1;durP2;ratioP2;P2;SDS_P1;SDS_P2;PMS_P1;PMS_P2;Temp;Humidity;BMP_temperature;BMP_pressure;BME280_temperature;BME280_humidity;BME280_pressure;Samples;Min_cycle;Max_cycle;Signal;HPM_P1;HPM_P2
2021/08/08 00:01:40;;;;;;;5.43;1.73;;;;;;;13.96;79.50;99897.16;5101710;27;20076;-74
2021/08/08 00:04:26;;;;;;;4.47;1.95;;;;;;;13.91;79.02;99900.13;5100151;28;20038;-74
2021/08/08 00:07:12;;;;;;;8.40;2.15;;;;;;;13.86;79.39;99903.09;5101646;27;20069;-74
2021/08/08 00:09:58;;;;;;;6.88;2.08;;;;;;;13.82;79.32;99899.31;5093507;27;20041;-74
2021/08/08 00:12:43;;;;;;;9.77;2.22;;;;;;;13.80;79.26;99898.81;5092549;27;20027;-74
2021/08/08 00:15:29;;;;;;;9.77;1.95;;;;;;;13.77;79.45;99905.88;5090324;28;20046;-74
2021/08/08 00:18:15;;;;;;;7.30;1.95;;;;;;;13.72;79.44;99896.88;5091052;27;20088;-74
2021/08/08 00:21:01;;;;;;;10.95;2.58;;;;;;;13.69;79.67;99898.34;5091636;27;20563;-74
2021/08/08 00:23:47;;;;;;;8.63;2.10;;;;;;;13.66;79.76;99898.19;5105960;27;20031;-74
2021/08/08 00:26:33;;;;;;;9.20;2.30;;;;;;;13.64;79.88;99902.09;5097162;27;20035;-74
2021/08/08 00:29:19;;;;;;;8.77;2.42;;;;;;;13.63;79.71;99900.47;5097231;27;20034;-74
2021/08/08 00:32:05;;;;;;;9.32;2.35;;;;;;;13.56;79.92;99894.56;5082465;27;20045;-74
2021/08/08 00:34:50;;;;;;;7.25;2.25;;;;;;;13.54;79.93;99899.69;5104460;28;20039;-73
2021/08/08 00:37:43;;;;;;;6.40;1.95;;;;;;;13.51;80.00;99897.53;5096949;27;20035;-74
2021/08/08 00:40:29;;;;;;;11.68;2.75;;;;;;;13.47;80.19;99893.75;5100819;28;20423;-74
2021/08/08 00:43:15;;;;;;;10.05;2.15;;;;;;;13.48;80.48;99903.75;5088797;27;20031;-74
2021/08/08 00:46:01;;;;;;;7.93;2.50;;;;;;;13.45;80.74;99898.03;5098333;28;20035;-74
2021/08/08 00:48:47;;;;;;;8.15;2.15;;;;;;;13.43;80.52;99900.31;5088932;28;20131;-74
2021/08/08 00:51:33;;;;;;;10.55;2.45;;;;;;;13.40;80.44;99897.06;5097309;28;20129;-74
2021/08/08 00:54:18;;;;;;;14.35;2.38;;;;;;;13.42;80.77;99893.91;5097496;28;20047;-74
2021/08/08 00:57:05;;;;;;;10.07;2.10;;;;;;;13.39;80.22;99894.56;5083813;28;20040;-74
2021/08/08 00:59:51;;;;;;;9.15;2.67;;;;;;;13.40;80.49;99901.81;5087477;28;20032;-74
2021/08/08 01:02:40;;;;;;;11.88;2.30;;;;;;;13.41;80.52;99900.66;5100888;28;20043;-74
2021/08/08 01:05:32;;;;;;;8.70;2.45;;;;;;;13.36;80.39;99895.22;5085035;28;20028;-74
2021/08/08 01:08:24;;;;;;;10.20;2.97;;;;;;;13.35;80.89;99899.19;5095543;28;20043;-74
2021/08/08 01:11:10;;;;;;;9.93;2.70;;;;;;;13.36;81.00;99909.19;5104934;28;20550;-74
2021/08/08 01:13:56;;;;;;;6.50;2.30;;;;;;;13.34;80.94;99908.69;5094562;28;20052;-74
2021/08/08 01:16:42;;;;;;;10.32;2.38;;;;;;;13.34;80.85;99903.09;5097257;28;20039;-74
2021/08/08 01:19:28;;;;;;;9.95;2.45;;;;;;;13.29;80.84;99897.69;5078977;28;20081;-74
2021/08/08 01:22:14;;;;;;;12.02;2.67;;;;;;;13.31;81.09;99893.41;5095726;28;20073;-74
2021/08/08 01:25:01;;;;;;;11.88;2.78;;;;;;;13.32;80.69;99902.63;5094627;28;20054;-74
2021/08/08 01:27:47;;;;;;;8.63;2.75;;;;;;;13.28;81.13;99898.84;5091941;28;20031;-74
2021/08/08 01:30:32;;;;;;;8.07;2.50;;;;;;;13.25;80.82;99900.28;5106237;27;20043;-74
2021/08/08 01:33:18;;;;;;;12.30;2.78;;;;;;;13.27;81.08;99906.38;5107048;27;20027;-74
2021/08/08 01:36:05;;;;;;;9.70;2.45;;;;;;;13.26;81.04;99907.53;5116259;27;20033;-75
2021/08/08 01:39:12;;;;;;;9.75;2.67;;;;;;;13.27;81.33;99902.78;5110261;27;20479;-74
2021/08/08 01:41:58;;;;;;;9.82;2.75;;;;;;;13.25;80.98;99907.81;5122151;27;20034;-74
2021/08/08 01:44:46;;;;;;;7.32;2.22;;;;;;;13.28;80.87;99910.81;5095093;27;20031;-74
2021/08/08 01:47:35;;;;;;;13.30;2.47;;;;;;;13.25;81.38;99905.84;5102598;28;20036;-74
2021/08/08 01:50:21;;;;;;;8.93;2.45;;;;;;;13.22;81.90;99905.69;5077437;28;20040;-74
2021/08/08 01:53:06;;;;;;;11.40;3.17;;;;;;;13.22;81.67;99902.91;5098078;28;20070;-74
2021/08/08 01:55:53;;;;;;;10.80;2.83;;;;;;;13.22;81.63;99894.53;5101942;27;20056;-74
2021/08/08 01:58:39;;;;;;;8.35;2.65;;;;;;;13.22;81.28;99892.56;5086273;28;20039;-74
2021/08/08 02:01:28;;;;;;;11.80;2.80;;;;;;;13.21;81.42;99904.06;5105368;28;20035;-74
2021/08/08 02:04:18;;;;;;;11.48;2.90;;;;;;;13.19;81.47;99896.81;5108802;27;20380;-74
2021/08/08 02:07:04;;;;;;;11.85;2.72;;;;;;;13.16;81.63;99894.69;5094237;27;20034;-74
2021/08/08 02:09:50;;;;;;;8.48;2.53;;;;;;;13.12;81.48;99902.09;5092796;27;20032;-74
2021/08/08 02:12:35;;;;;;;9.73;2.70;;;;;;;13.12;81.49;99901.25;5105246;27;20077;-74
2021/08/08 02:15:21;;;;;;;8.65;2.35;;;;;;;13.09;81.60;99902.75;5089018;28;20488;-74
2021/08/08 02:18:07;;;;;;;10.23;2.97;;;;;;;13.07;81.41;99905.03;5100070;27;20471;-74
2021/08/08 02:20:53;;;;;;;10.43;2.65;;;;;;;13.07;81.52;99912.56;5103107;27;20030;-74
2021/08/08 02:23:39;;;;;;;10.73;3.15;;;;;;;13.05;81.69;99907.31;5083683;27;20056;-74
2021/08/08 02:26:24;;;;;;;10.10;2.42;;;;;;;13.03;81.86;99909.59;5093516;27;20049;-74
2021/08/08 02:29:10;;;;;;;13.88;3.10;;;;;;;13.02;81.65;99907.97;5105136;27;20027;-74
2021/08/08 02:31:56;;;;;;;9.05;2.55;;;;;;;13.03;81.93;99908.78;5093511;27;21638;-74
2021/08/08 02:34:42;;;;;;;8.13;2.65;;;;;;;13.03;82.16;99911.56;5089391;27;20383;-75
2021/08/08 02:37:28;;;;;;;7.90;2.33;;;;;;;13.02;81.76;99912.72;5094494;27;20054;-74
2021/08/08 02:40:13;;;;;;;10.63;3.00;;;;;;;13.01;82.05;99911.06;5095179;27;20039;-75
2021/08/08 02:42:59;;;;;;;7.72;2.55;;;;;;;12.99;81.80;99907.81;5093054;27;20037;-74
2021/08/08 02:45:49;;;;;;;11.38;3.25;;;;;;;12.96;81.76;99912.06;5094664;27;20027;-74
2021/08/08 02:48:35;;;;;;;9.15;2.50;;;;;;;12.96;81.43;99910.09;5095340;27;20070;-74
2021/08/08 02:51:21;;;;;;;13.65;3.03;;;;;;;12.94;81.84;99917.13;5093338;27;20043;-74
2021/08/08 02:54:07;;;;;;;8.20;2.40;;;;;;;12.92;81.61;99908.25;5092355;27;20118;-74
2021/08/08 02:56:53;;;;;;;10.77;2.88;;;;;;;12.92;81.65;99916.63;5085126;27;20139;-74
2021/08/08 02:59:38;;;;;;;7.50;2.28;;;;;;;12.89;81.48;99920.88;5094515;27;20028;-74
2021/08/08 03:02:24;;;;;;;6.88;2.33;;;;;;;12.89;81.32;99925.63;5096881;28;20089;-74
2021/08/08 03:05:10;;;;;;;8.85;2.47;;;;;;;12.87;81.40;99919.56;5093600;27;20031;-74
2021/08/08 03:07:56;;;;;;;9.85;2.83;;;;;;;12.84;81.09;99923.84;5097131;27;20118;-74
2021/08/08 03:10:42;;;;;;;10.77;2.70;;;;;;;12.82;81.26;99926.13;5092463;27;20039;-74
2021/08/08 03:13:28;;;;;;;10.98;2.60;;;;;;;12.79;81.22;99928.72;5110009;27;20043;-74
2021/08/08 03:16:13;;;;;;;9.63;2.42;;;;;;;12.74;81.31;99933.28;5100689;28;20035;-74
2021/08/08 03:18:59;;;;;;;10.50;2.58;;;;;;;12.72;81.48;99938.34;5098496;27;20039;-74
2021/08/08 03:21:45;;;;;;;7.65;2.55;;;;;;;12.69;81.33;99927.88;5111219;27;20023;-74
2021/08/08 03:24:31;;;;;;;10.82;2.97;;;;;;;12.67;81.18;99930.16;5094906;27;20088;-74
2021/08/08 03:27:17;;;;;;;6.72;2.53;;;;;;;12.65;81.24;99938.03;5104059;27;20027;-75
2021/08/08 03:30:06;;;;;;;10.25;2.45;;;;;;;12.63;81.38;99933.91;5107581;27;20035;-74
2021/08/08 03:32:52;;;;;;;8.65;2.40;;;;;;;12.59;81.33;99928.19;5092874;27;20043;-74
2021/08/08 03:35:38;;;;;;;9.73;2.75;;;;;;;12.57;81.34;99930.47;5094945;27;20117;-75
2021/08/08 03:38:23;;;;;;;10.68;2.95;;;;;;;12.52;81.37;99933.38;5114501;28;20032;-74
2021/08/08 03:41:09;;;;;;;9.70;2.95;;;;;;;12.51;81.29;99938.13;5092788;27;20043;-74
2021/08/08 03:43:55;;;;;;;8.73;2.45;;;;;;;12.46;81.44;99929.09;5081426;27;20030;-74
2021/08/08 03:46:41;;;;;;;9.48;2.78;;;;;;;12.44;81.45;99934.16;5091809;28;20038;-74
2021/08/08 03:49:27;;;;;;;8.60;2.38;;;;;;;12.43;81.38;99938.91;5107654;27;20043;-74
2021/08/08 03:52:12;;;;;;;9.18;3.13;;;;;;;12.41;81.55;99938.41;5104373;27;20031;-74
2021/08/08 03:54:58;;;;;;;9.75;2.85;;;;;;;12.38;81.48;99943.81;5090912;27;20406;-74
2021/08/08 03:57:44;;;;;;;9.98;2.80;;;;;;;12.33;81.47;99946.72;5104311;27;20395;-75
2021/08/08 04:00:30;;;;;;;8.65;2.70;;;;;;;12.32;81.66;99947.88;5106626;27;20031;-74
2021/08/08 04:03:16;;;;;;;10.02;2.63;;;;;;;12.27;82.04;99943.25;5091373;27;20487;-74
2021/08/08 04:06:02;;;;;;;9.32;2.30;;;;;;;12.24;81.77;99941.09;5091805;27;20035;-74
2021/08/08 04:08:48;;;;;;;11.30;3.30;;;;;;;12.24;82.20;99947.50;5106898;27;20064;-74
2021/08/08 04:11:33;;;;;;;9.10;2.70;;;;;;;12.22;82.00;99948.94;5109177;28;20036;-74
2021/08/08 04:14:19;;;;;;;7.10;2.90;;;;;;;12.18;82.09;99956.31;5100395;27;20024;-74
2021/08/08 04:17:05;;;;;;;9.13;3.10;;;;;;;12.19;82.30;99950.41;5086430;27;20049;-74
2021/08/08 04:19:51;;;;;;;14.10;3.00;;;;;;;12.16;82.07;99947.44;5088282;27;20027;-74
2021/08/08 04:22:36;;;;;;;8.38;3.00;;;;;;;12.17;82.38;99954.63;5092468;27;20079;-74
2021/08/08 04:25:22;;;;;;;11.88;3.10;;;;;;;12.14;82.16;99958.88;5097439;27;20035;-74
2021/08/08 04:28:08;;;;;;;10.15;3.17;;;;;;;12.13;82.17;99960.03;5091614;27;20035;-74
2021/08/08 04:30:54;;;;;;;10.63;2.90;;;;;;;12.08;82.16;99947.06;5094408;27;20024;-74
2021/08/08 04:33:40;;;;;;;11.73;3.10;;;;;;;12.11;82.19;99953.94;5101255;28;20046;-74
2021/08/08 04:36:25;;;;;;;9.32;2.83;;;;;;;12.08;82.31;99960.16;5092771;27;20039;-74
2021/08/08 04:39:11;;;;;;;9.88;3.03;;;;;;;12.08;82.24;99960.16;5085925;27;20102;-74
2021/08/08 04:41:57;;;;;;;14.00;2.83;;;;;;;12.05;82.57;99966.34;5104396;27;20147;-74
2021/08/08 04:44:43;;;;;;;10.75;2.80;;;;;;;12.05;82.54;99960.78;5087240;28;20054;-75
2021/08/08 04:47:29;;;;;;;9.20;2.88;;;;;;;12.04;82.07;99967.50;5092446;28;20032;-74
2021/08/08 04:50:15;;;;;;;11.38;3.10;;;;;;;12.02;82.34;99964.22;5116416;27;20046;-74
2021/08/08 04:53:01;;;;;;;9.45;2.83;;;;;;;11.97;82.25;99970.72;5081953;27;20023;-74
2021/08/08 04:55:46;;;;;;;9.80;3.00;;;;;;;11.96;82.41;99976.63;5093710;27;20047;-74
2021/08/08 04:58:32;;;;;;;10.02;2.90;;;;;;;11.96;82.05;99971.06;5086970;28;20032;-74
2021/08/08 05:01:18;;;;;;;12.13;3.10;;;;;;;11.95;82.59;99969.38;5100267;27;20031;-74
2021/08/08 05:04:04;;;;;;;9.27;2.88;;;;;;;11.94;82.63;99967.75;5083883;28;20035;-74
2021/08/08 05:06:50;;;;;;;8.57;2.75;;;;;;;11.94;82.70;99971.34;5092662;28;20035;-74
2021/08/08 05:09:35;;;;;;;9.80;2.67;;;;;;;11.91;83.13;99960.03;5101478;28;20048;-74
2021/08/08 05:12:21;;;;;;;9.30;2.88;;;;;;;11.89;82.79;99965.09;5106815;27;20035;-74
2021/08/08 05:15:07;;;;;;;12.93;2.95;;;;;;;11.90;83.05;99963.97;5110459;27;20035;-74
2021/08/08 05:17:53;;;;;;;15.60;3.55;;;;;;;11.89;82.94;99970.66;5096063;27;20031;-74
2021/08/08 05:20:39;;;;;;;12.73;3.90;;;;;;;11.91;83.04;99971.19;5096965;27;20100;-74
2021/08/08 05:23:25;;;;;;;11.65;3.33;;;;;;;11.95;83.95;99970.25;5093780;27;20487;-74
2021/08/08 05:26:10;;;;;;;10.57;3.28;;;;;;;11.95;84.29;99970.25;5106184;27;20031;-74
2021/08/08 05:28:56;;;;;;;11.80;3.00;;;;;;;12.00;84.32;99978.44;5110176;27;20036;-74
2021/08/08 05:31:42;;;;;;;13.10;3.55;;;;;;;12.04;84.33;99973.91;5123359;27;20506;-74
2021/08/08 05:34:28;;;;;;;13.35;2.85;;;;;;;12.14;84.74;99977.53;5104829;28;20429;-74
2021/08/08 05:37:14;;;;;;;11.40;3.15;;;;;;;12.20;85.65;99971.56;5122285;27;20526;-74
2021/08/08 05:40:04;;;;;;;11.55;3.38;;;;;;;12.30;86.11;99974.03;5094484;27;20539;-74
2021/08/08 05:42:50;;;;;;;13.18;3.47;;;;;;;12.41;85.53;99968.22;5096988;27;20115;-74
2021/08/08 05:45:36;;;;;;;15.90;3.20;;;;;;;12.54;86.06;99972.88;5120532;27;20035;-74
2021/08/08 05:48:21;;;;;;;14.35;3.45;;;;;;;12.68;86.45;99986.72;5096250;27;20031;-74
2021/08/08 05:51:07;;;;;;;16.58;3.55;;;;;;;12.82;86.50;99983.81;5097414;27;20124;-75
2021/08/08 05:53:54;;;;;;;12.48;3.40;;;;;;;12.95;85.56;99996.78;5116774;27;20056;-74
2021/08/08 05:56:39;;;;;;;9.93;3.17;;;;;;;13.10;84.21;99993.59;5106993;27;20047;-74
2021/08/08 05:59:25;;;;;;;10.48;2.63;;;;;;;13.25;83.21;99986.72;5107525;27;20027;-74
2021/08/08 06:02:11;;;;;;;11.68;2.95;;;;;;;13.40;82.65;99985.50;5109057;27;20039;-74
2021/08/08 06:04:57;;;;;;;9.40;3.35;;;;;;;13.56;81.93;99988.59;5094200;27;20075;-74
2021/08/08 06:07:43;;;;;;;12.35;3.00;;;;;;;13.71;81.31;99993.72;5091378;27;20118;-74
2021/08/08 06:10:28;;;;;;;10.48;3.03;;;;;;;13.85;81.31;99982.41;5119943;27;20035;-74
2021/08/08 06:13:14;;;;;;;13.15;3.25;;;;;;;14.01;81.29;99997.50;5083513;27;20081;-74
2021/08/08 06:16:00;;;;;;;10.93;2.80;;;;;;;14.17;80.83;100003.38;5109344;27;20498;-74
2021/08/08 06:18:46;;;;;;;13.27;3.47;;;;;;;14.34;80.79;100012.88;5109104;27;20091;-75
2021/08/08 06:21:31;;;;;;;12.90;3.88;;;;;;;14.50;80.45;100009.22;5110118;27;20035;-74
2021/08/08 06:24:17;;;;;;;12.30;3.17;;;;;;;14.66;80.18;100009.56;5121373;27;20031;-74
2021/08/08 06:27:03;;;;;;;13.88;4.32;;;;;;;14.82;79.65;100023.81;5103933;27;20038;-74
2021/08/08 06:29:49;;;;;;;14.68;3.35;;;;;;;14.98;79.41;100019.28;5102409;28;20031;-74
2021/08/08 06:32:35;;;;;;;13.57;3.22;;;;;;;15.16;79.11;100030.41;5091282;27;20027;-74
2021/08/08 06:35:21;;;;;;;11.07;3.40;;;;;;;15.34;78.68;100031.13;5110301;27;20035;-74
2021/08/08 06:38:07;;;;;;;10.77;3.50;;;;;;;15.51;78.33;100021.81;5080414;27;20031;-74
2021/08/08 06:40:53;;;;;;;10.65;3.20;;;;;;;15.67;78.45;100033.22;5111183;27;20518;-74
2021/08/08 06:43:38;;;;;;;14.52;3.58;;;;;;;15.83;77.99;100028.69;5104082;27;20491;-74
2021/08/08 06:46:24;;;;;;;9.35;2.97;;;;;;;16.01;77.74;100026.56;5094430;27;20080;-74
2021/08/08 06:49:10;;;;;;;9.90;3.20;;;;;;;16.17;77.39;100037.97;5108358;27;20041;-74
2021/08/08 06:51:56;;;;;;;13.45;3.58;;;;;;;16.36;76.97;100037.47;5090097;28;20036;-74
2021/08/08 06:54:41;;;;;;;16.83;3.88;;;;;;;16.51;77.04;100039.63;5085271;28;20122;-74
2021/08/08 06:57:28;;;;;;;13.27;3.65;;;;;;;16.68;76.66;100044.22;5093988;27;20034;-74
2021/08/08 07:00:14;;;;;;;11.80;3.53;;;;;;;16.86;76.22;100050.50;5095175;27;20045;-74
2021/08/08 07:03:00;;;;;;;12.10;3.67;;;;;;;17.05;76.46;100047.13;5094217;27;20027;-75
2021/08/08 07:05:46;;;;;;;12.10;3.42;;;;;;;17.20;75.56;100055.69;5104272;27;20036;-75
2021/08/08 07:08:31;;;;;;;16.30;3.97;;;;;;;17.29;75.98;100044.34;5107980;27;20040;-75
2021/08/08 07:11:17;;;;;;;16.33;4.03;;;;;;;17.42;75.49;100042.34;5098564;27;20376;-74
2021/08/08 07:14:03;;;;;;;9.07;3.42;;;;;;;17.61;74.99;100047.38;5107944;27;20051;-74
2021/08/08 07:16:49;;;;;;;13.00;3.55;;;;;;;17.75;74.77;100061.06;5095558;27;20092;-75
2021/08/08 07:19:35;;;;;;;18.10;4.65;;;;;;;17.87;76.23;100066.66;5106883;27;20056;-74
2021/08/08 07:22:21;;;;;;;12.40;3.65;;;;;;;17.93;76.53;100073.66;5092846;27;20046;-74
2021/08/08 07:25:07;;;;;;;11.73;3.42;;;;;;;18.08;75.55;100069.31;5093023;27;20118;-74
2021/08/08 07:27:53;;;;;;;15.70;4.05;;;;;;;18.21;74.39;100068.09;5106772;27;20031;-74
2021/08/08 07:30:39;;;;;;;11.07;3.40;;;;;;;18.33;74.13;100064.44;5087586;27;20502;-74
2021/08/08 07:33:25;;;;;;;12.95;3.25;;;;;;;18.50;73.87;100075.38;5100505;27;20050;-74
2021/08/08 07:36:10;;;;;;;11.10;3.17;;;;;;;18.65;73.40;100070.16;5092175;27;20031;-74
2021/08/08 07:38:56;;;;;;;16.27;4.00;;;;;;;18.78;73.67;100082.16;5094710;27;20080;-74
2021/08/08 07:41:42;;;;;;;12.43;3.50;;;;;;;18.94;72.93;100077.38;5107461;27;20081;-74
2021/08/08 07:44:28;;;;;;;15.23;3.63;;;;;;;19.10;72.70;100072.59;5106042;27;20027;-74
2021/08/08 07:47:16;;;;;;;17.35;4.18;;;;;;;19.21;73.35;100084.13;5096163;27;20039;-74
2021/08/08 07:50:01;;;;;;;11.52;3.28;;;;;;;19.37;72.58;100084.13;5088056;28;20039;-74
2021/08/08 07:52:47;;;;;;;9.75;3.38;;;;;;;19.51;72.23;100086.50;5086665;27;20456;-74
2021/08/08 07:55:33;;;;;;;12.27;3.30;;;;;;;19.68;71.39;100083.31;5104543;27;20394;-74
2021/08/08 07:58:19;;;;;;;14.30;3.90;;;;;;;19.82;71.01;100082.84;5091397;27;20043;-74
2021/08/08 08:01:05;;;;;;;9.82;3.05;;;;;;;19.96;70.93;100076.72;5091148;27;20039;-74
2021/08/08 08:03:50;;;;;;;9.32;3.50;;;;;;;20.08;71.69;100077.38;5092882;27;20035;-74
2021/08/08 08:06:36;;;;;;;14.55;3.78;;;;;;;20.27;70.23;100084.22;5118276;27;20027;-74
2021/08/08 08:09:22;;;;;;;11.20;3.28;;;;;;;20.40;69.83;100082.09;5094824;27;20031;-74
2021/08/08 08:12:08;;;;;;;13.73;3.22;;;;;;;20.58;70.33;100083.28;5087627;28;20119;-74
2021/08/08 08:14:53;;;;;;;12.73;3.92;;;;;;;20.73;69.32;100085.22;5103130;27;20115;-74
2021/08/08 08:17:39;;;;;;;10.95;3.17;;;;;;;20.88;68.75;100088.31;5089843;27;20535;-74
2021/08/08 08:20:25;;;;;;;14.45;3.55;;;;;;;21.00;68.73;100096.59;5098710;27;20027;-74
2021/08/08 08:23:11;;;;;;;9.50;2.92;;;;;;;21.07;67.83;100076.97;5105604;27;20087;-74
2021/08/08 08:25:57;;;;;;;12.48;3.40;;;;;;;21.19;67.31;100090.91;5104921;27;20483;-74
2021/08/08 08:28:42;;;;;;;12.15;3.03;;;;;;;21.29;67.27;100081.00;5115899;27;20036;-74
2021/08/08 08:31:28;;;;;;;10.27;3.25;;;;;;;21.46;66.81;100090.19;5087425;27;20106;-74
2021/08/08 08:34:14;;;;;;;12.88;3.30;;;;;;;21.59;66.62;100095.25;5119825;27;20041;-74
2021/08/08 08:37:00;;;;;;;12.25;3.03;;;;;;;21.77;66.56;100094.72;5093887;28;20096;-74
2021/08/08 08:39:46;;;;;;;11.57;3.05;;;;;;;21.97;65.82;100099.06;5111439;28;20392;-74
2021/08/08 08:42:33;;;;;;;11.32;2.95;;;;;;;22.11;65.52;100091.97;5101013;27;20483;-74
2021/08/08 08:45:19;;;;;;;8.95;2.83;;;;;;;22.27;65.10;100107.59;5096014;27;20034;-74
2021/08/08 08:48:05;;;;;;;11.73;3.40;;;;;;;22.35;64.95;100102.84;5089715;27;20046;-74
2021/08/08 08:50:53;;;;;;;9.98;2.60;;;;;;;22.37;64.98;100106.13;5085801;28;20503;-74
2021/08/08 08:53:41;;;;;;;11.60;2.75;;;;;;;22.39;64.03;100114.22;5090028;27;20035;-74
2021/08/08 08:56:29;;;;;;;11.50;3.17;;;;;;;22.42;63.84;100111.41;5083771;27;20518;-74
2021/08/08 08:59:14;;;;;;;11.93;3.05;;;;;;;22.49;63.75;100120.00;5094713;27;20045;-74
2021/08/08 09:02:00;;;;;;;7.30;2.50;;;;;;;22.57;63.41;100120.13;5107040;27;20049;-74
2021/08/08 09:04:46;;;;;;;9.98;2.75;;;;;;;22.65;63.33;100118.97;5104202;27;20043;-74
2021/08/08 09:07:32;;;;;;;12.90;2.70;;;;;;;22.78;63.38;100120.34;5078541;28;20039;-74
2021/08/08 09:10:21;;;;;;;10.70;2.95;;;;;;;22.92;63.30;100119.72;5092195;28;20031;-74
2021/08/08 09:13:07;;;;;;;13.10;2.83;;;;;;;23.09;62.43;100119.09;5113804;28;20062;-74
2021/08/08 09:15:52;;;;;;;8.95;2.78;;;;;;;23.29;62.10;100121.72;5088738;28;20039;-74
2021/08/08 09:18:47;;;;;;;10.40;2.90;;;;;;;23.53;61.80;100120.34;5082818;27;23825;-74
2021/08/08 09:21:34;;;;;;;5.93;2.08;;;;;;;23.77;61.03;100133.13;5090628;28;20096;-74
2021/08/08 09:24:34;;;;;;;8.18;2.20;;;;;;;24.03;59.97;100127.22;5109191;28;20043;-74
2021/08/08 09:27:20;;;;;;;11.82;2.65;;;;;;;24.27;59.12;100130.63;5100956;28;20043;-74
2021/08/08 09:30:17;;;;;;;7.25;2.33;;;;;;;24.53;59.33;100121.06;5103447;28;20032;-74
2021/08/08 09:33:03;;;;;;;8.90;2.20;;;;;;;24.77;58.45;100124.38;5097116;27;20071;-74
2021/08/08 09:35:51;;;;;;;7.57;1.98;;;;;;;24.97;57.75;100117.16;5095810;27;20402;-74
2021/08/08 09:38:44;;;;;;;7.15;2.05;;;;;;;25.16;57.74;100131.03;5107650;28;20027;-74
2021/08/08 09:41:32;;;;;;;;;;;;;;;25.23;55.83;100146.47;5103322;28;20054;-74
2021/08/08 09:44:17;;;;;;;7.57;2.42;;;;;;;25.38;57.05;100136.75;5119950;27;19959;-74
2021/08/08 09:47:04;;;;;;;8.45;2.13;;;;;;;25.35;56.76;100138.38;5091950;27;20108;-74
2021/08/08 09:49:54;;;;;;;8.68;2.13;;;;;;;25.26;56.45;100154.19;5101084;28;20040;-74
2021/08/08 09:52:40;;;;;;;6.28;1.80;;;;;;;25.05;56.84;100141.53;5085774;28;20035;-74
2021/08/08 09:55:33;;;;;;;10.80;1.90;;;;;;;24.96;57.63;100143.94;5091662;27;20039;-74
2021/08/08 09:58:22;;;;;;;8.80;2.35;;;;;;;24.87;57.01;100140.66;5126910;27;20035;-74
2021/08/08 10:01:08;;;;;;;9.00;1.77;;;;;;;24.83;57.14;100146.34;5097322;27;20035;-74
2021/08/08 10:03:54;;;;;;;6.20;1.65;;;;;;;24.85;57.69;100143.06;5090183;28;20491;-74
2021/08/08 10:06:40;;;;;;;6.90;1.90;;;;;;;24.84;57.49;100144.31;5094590;27;20035;-74
2021/08/08 10:09:25;;;;;;;9.38;1.98;;;;;;;24.93;56.57;100147.56;5105170;27;20048;-74
2021/08/08 10:12:46;;;;;;;7.32;2.05;;;;;;;25.06;56.10;100146.00;5094373;27;20031;-74
2021/08/08 10:15:33;;;;;;;8.57;1.70;;;;;;;25.11;55.08;100156.16;5101223;27;20172;-74
2021/08/08 10:18:22;;;;;;;7.90;1.60;;;;;;;25.23;55.29;100157.84;5097801;27;20036;-74
2021/08/08 10:21:09;;;;;;;12.30;2.00;;;;;;;25.20;54.13;100150.94;5109825;27;20031;-74
2021/08/08 10:23:58;;;;;;;6.05;1.48;;;;;;;25.23;53.20;100155.00;5094955;27;20034;-73
2021/08/08 10:26:44;;;;;;;6.63;1.85;;;;;;;25.21;53.62;100158.22;5107943;27;20452;-74
2021/08/08 10:29:30;;;;;;;6.45;1.80;;;;;;;25.23;54.34;100149.31;5103996;27;20460;-74
2021/08/08 10:32:16;;;;;;;5.88;1.50;;;;;;;25.24;54.86;100156.63;5095415;27;20039;-74
2021/08/08 10:35:13;;;;;;;6.53;1.45;;;;;;;25.12;54.50;100158.59;5106995;27;20549;-74
2021/08/08 10:38:00;;;;;;;5.60;1.55;;;;;;;25.06;55.71;100174.41;5100050;27;20034;-74
2021/08/08 10:40:47;;;;;;;7.00;1.83;;;;;;;24.90;57.30;100174.75;5102278;27;20027;-74
2021/08/08 10:43:34;;;;;;;6.60;1.88;;;;;;;24.72;58.39;100177.53;5091651;28;20122;-74
2021/08/08 10:46:19;;;;;;;6.00;1.75;;;;;;;24.49;58.07;100177.81;5106675;27;20039;-73
2021/08/08 10:49:05;;;;;;;9.10;1.85;;;;;;;24.26;62.07;100175.19;5094238;27;20031;-73
2021/08/08 10:52:01;;;;;;;7.88;1.80;;;;;;;24.12;62.79;100172.28;5092303;27;20039;-73
2021/08/08 10:54:49;;;;;;;7.72;1.92;;;;;;;23.98;63.96;100175.81;5116182;28;20059;-74
2021/08/08 10:57:44;;;;;;;4.82;1.55;;;;;;;23.92;65.21;100176.59;5095628;28;20127;-74
2021/08/08 11:00:33;;;;;;;5.60;1.65;;;;;;;23.89;64.98;100163.19;5071987;28;20089;-73
2021/08/08 11:03:19;;;;;;;6.82;1.50;;;;;;;23.94;64.62;100168.50;5065113;28;20032;-73
2021/08/08 11:06:05;;;;;;;9.07;1.73;;;;;;;24.02;64.08;100161.69;5075050;28;20027;-73
2021/08/08 11:08:52;;;;;;;5.47;1.50;;;;;;;24.13;64.66;100170.28;5087659;28;20119;-73
2021/08/08 11:11:38;;;;;;;6.47;1.65;;;;;;;24.29;64.73;100168.75;5085490;28;20032;-73
2021/08/08 11:14:25;;;;;;;7.65;1.90;;;;;;;24.47;63.97;100160.38;5081944;28;20043;-73
2021/08/08 11:17:11;;;;;;;7.47;1.65;;;;;;;24.62;60.34;100172.59;5074227;28;20036;-74
2021/08/08 11:19:57;;;;;;;4.70;1.60;;;;;;;24.87;60.36;100163.38;5086945;28;20032;-74
2021/08/08 11:22:43;;;;;;;5.95;1.55;;;;;;;25.10;60.28;100154.53;5081872;28;20040;-74
2021/08/08 11:25:37;;;;;;;4.88;1.42;;;;;;;25.34;58.19;100164.34;5085791;28;20035;-74
2021/08/08 11:28:23;;;;;;;5.88;1.38;;;;;;;25.47;56.35;100164.78;5064429;28;20032;-74
2021/08/08 11:31:17;;;;;;;5.47;1.95;;;;;;;25.62;55.61;100158.69;5062987;28;20555;-74
2021/08/08 11:34:05;;;;;;;7.63;1.48;;;;;;;25.78;54.53;100160.34;5082082;28;20071;-73
2021/08/08 11:36:51;;;;;;;7.20;1.42;;;;;;;25.91;53.81;100170.13;5067337;28;20035;-74
2021/08/08 11:39:37;;;;;;;5.05;1.70;;;;;;;25.93;53.69;100164.00;5085702;28;20036;-74
2021/08/08 11:42:31;;;;;;;5.90;1.13;;;;;;;26.01;52.55;100166.44;5075685;28;20046;-74
2021/08/08 11:45:17;;;;;;;4.35;1.08;;;;;;;26.00;52.32;100166.88;5088163;28;20077;-74
2021/08/08 11:48:04;;;;;;;6.00;1.15;;;;;;;25.96;52.58;100155.47;5073471;28;20550;-74
2021/08/08 11:50:59;;;;;;;3.78;1.30;;;;;;;26.09;53.35;100170.09;5079782;28;20032;-74
2021/08/08 11:53:45;;;;;;;5.72;1.30;;;;;;;26.24;52.87;100168.88;5089363;28;20027;-74
2021/08/08 11:56:31;;;;;;;5.55;1.20;;;;;;;26.36;52.62;100173.31;5085663;28;20032;-74
2021/08/08 11:59:27;;;;;;;4.35;1.20;;;;;;;26.41;50.29;100170.06;5074100;28;20063;-74
2021/08/08 12:02:12;;;;;;;3.95;1.17;;;;;;;26.49;47.94;100183.06;5085875;28;20031;-74
2021/08/08 12:04:58;;;;;;;4.95;0.80;;;;;;;26.65;49.90;100184.66;5101647;28;20031;-74
2021/08/08 12:07:44;;;;;;;2.88;0.90;;;;;;;26.78;49.12;100177.28;5073130;28;20036;-74
2021/08/08 12:10:34;;;;;;;4.53;0.88;;;;;;;26.92;48.12;100174.38;5078049;28;20035;-74
2021/08/08 12:13:20;;;;;;;6.18;1.20;;;;;;;27.02;47.85;100186.94;5097377;28;20027;-74
2021/08/08 12:16:13;;;;;;;5.55;1.08;;;;;;;27.16;48.74;100183.22;5087061;28;20039;-74
2021/08/08 12:18:59;;;;;;;5.03;1.02;;;;;;;27.33;48.80;100175.78;5071073;28;20487;-74
2021/08/08 12:21:45;;;;;;;3.95;1.02;;;;;;;27.34;46.51;100175.38;5081529;28;20036;-74
2021/08/08 12:24:35;;;;;;;4.63;0.90;;;;;;;27.50;47.74;100174.09;5094010;28;20043;-73
2021/08/08 12:27:34;;;;;;;4.78;1.00;;;;;;;27.62;47.61;100176.44;5078380;28;20036;-74
2021/08/08 12:30:22;;;;;;;5.68;0.90;;;;;;;27.77;48.03;100174.25;5101760;28;20031;-73
2021/08/08 12:33:09;;;;;;;3.80;1.05;;;;;;;27.95;48.45;100162.75;5074564;27;20031;-74
2021/08/08 12:35:55;;;;;;;5.82;0.90;;;;;;;28.13;49.05;100168.28;5081358;28;20040;-74
2021/08/08 12:38:47;;;;;;;5.05;1.25;;;;;;;28.26;48.58;100169.38;5094361;28;20032;-74
2021/08/08 12:41:38;;;;;;;7.13;1.13;;;;;;;28.29;45.65;100172.19;5085025;28;20058;-74
2021/08/08 12:45:00;;;;;;;8.32;1.13;;;;;;;28.26;46.63;100164.47;5075994;28;20030;-74
2021/08/08 12:47:57;;;;;;;4.45;1.00;;;;;;;28.25;45.73;100179.16;5090395;28;20036;-74
2021/08/08 12:50:43;;;;;;;3.50;1.05;;;;;;;28.08;45.81;100178.09;5075183;28;20475;-73
2021/08/08 12:53:29;;;;;;;9.27;1.20;;;;;;;27.94;45.92;100201.06;5079400;28;20024;-74
2021/08/08 12:56:15;;;;;;;5.57;1.10;;;;;;;27.73;46.93;100202.84;5080888;28;20062;-74
2021/08/08 12:59:01;;;;;;;4.85;1.00;;;;;;;27.26;48.29;100222.28;5075767;28;20032;-73